Etusivu
METAR-TAF:

METAR-TAF

Lentoasemat :

Eros Airport

Windhoek, Namibia

Leveyspiiri: 22-36-44S, Pituuspiiri: 017-04-50E, korkeus merenpinnasta: 1699 m

Tämänhetkinen sää

Tämä raportti tehtiin 9 tuntia ja 11 minuuttia sitten, kello 18.00 UTC
Tuuli 2 kn eri suunnista
Lämpötila 27°C
Kosteus 9%
Ilmanpaine 1021 hPa
Näkyvyys 10 km tai enemmän
ei pilviä alle 1500 m:ssä eikä cumulonimbus-pilviä

METAR: FYWE 101800Z VRB02KT CAVOK 27/M09 Q1021

Aika: 05:11 (03:11 UTC)

Sääennuste

Tämä raportti tehtiin 4 tuntia ja 11 minuuttia sitten, kello 23.00 UTC
Ennuste voimassa 11. päivästä klo 00 UTC - 11. päivään klo 09 UTC
Tuuli 4 kn etelästä/kaakosta
Näkyvyys 10 km tai enemmän
ei pilviä alle 1500 m:ssä eikä cumulonimbus-pilviä
Tulossa
11. päivästä klo 04 UTC - 11. päivään klo 06 UTC
Tuuli 5 kn idästä/koillisesta

TAF: FYWE 102300Z 1100/1109 16004KT CAVOK BECMG 1104/1106 06005KT

Säähavainnot ja -ennusteet yli 4000 lentoasemalta (METAR- ja TAF-raportit).

Käytössä olevat sääasemat on merkitty karttaan keltaisilla ja punaisilla pisteillä.

Aseta hiiri pisteen päälle nähdäksesi sääaseman nimen.

Klikkaa sitten nähdäksesi säähavainnot ja -ennusteet.

Kartan vaihtaminen: klikkaa mustalla rastilla varustettuja vihreitä pisteitä, niin voit zoomata sisään; viivalla varustettua vihreää pistettä, niin voit zoomata ulos tai vihreitä nuolia, niin pääset viereisille kartoille.


METAR-TAF: